sensor_id;sensor_type;location;lat;lon;timestamp;temperature;humidity
12708;DHT22;6418;50.824;4.718;2022-10-04T00:01:02;9.10;99.90
12708;DHT22;6418;50.824;4.718;2022-10-04T00:03:33;9.10;99.90
12708;DHT22;6418;50.824;4.718;2022-10-04T00:06:01;9.10;99.90
12708;DHT22;6418;50.824;4.718;2022-10-04T00:08:36;9.70;99.90
12708;DHT22;6418;50.824;4.718;2022-10-04T00:11:11;9.20;99.90
12708;DHT22;6418;50.824;4.718;2022-10-04T00:13:40;9.00;99.90
12708;DHT22;6418;50.824;4.718;2022-10-04T00:16:19;9.10;99.90
12708;DHT22;6418;50.824;4.718;2022-10-04T00:18:48;9.10;99.90
12708;DHT22;6418;50.824;4.718;2022-10-04T00:24:35;9.00;99.90
12708;DHT22;6418;50.824;4.718;2022-10-04T00:27:10;8.90;99.90
12708;DHT22;6418;50.824;4.718;2022-10-04T00:29:39;8.90;99.90
12708;DHT22;6418;50.824;4.718;2022-10-04T00:32:28;10.00;99.90
12708;DHT22;6418;50.824;4.718;2022-10-04T00:34:56;8.90;99.90
12708;DHT22;6418;50.824;4.718;2022-10-04T00:37:25;8.80;99.90
12708;DHT22;6418;50.824;4.718;2022-10-04T00:40:04;8.80;99.90
12708;DHT22;6418;50.824;4.718;2022-10-04T00:42:43;9.10;99.90
12708;DHT22;6418;50.824;4.718;2022-10-04T00:45:20;8.60;99.90
12708;DHT22;6418;50.824;4.718;2022-10-04T00:48:16;8.70;99.90
12708;DHT22;6418;50.824;4.718;2022-10-04T00:50:50;8.70;99.90
12708;DHT22;6418;50.824;4.718;2022-10-04T00:53:27;8.70;99.90
12708;DHT22;6418;50.824;4.718;2022-10-04T00:56:00;8.90;99.90
12708;DHT22;6418;50.824;4.718;2022-10-04T00:58:31;9.00;99.90
12708;DHT22;6418;50.824;4.718;2022-10-04T01:01:00;8.80;99.90
12708;DHT22;6418;50.824;4.718;2022-10-04T01:03:32;8.60;99.90
12708;DHT22;6418;50.824;4.718;2022-10-04T01:06:03;8.50;99.90
12708;DHT22;6418;50.824;4.718;2022-10-04T01:08:34;8.50;99.90
12708;DHT22;6418;50.824;4.718;2022-10-04T01:11:08;8.60;99.90
12708;DHT22;6418;50.824;4.718;2022-10-04T01:13:38;8.50;99.90
12708;DHT22;6418;50.824;4.718;2022-10-04T01:16:10;8.50;99.90
12708;DHT22;6418;50.824;4.718;2022-10-04T01:18:39;8.50;99.90
12708;DHT22;6418;50.824;4.718;2022-10-04T01:21:08;8.50;99.90
12708;DHT22;6418;50.824;4.718;2022-10-04T01:23:49;8.50;99.90
12708;DHT22;6418;50.824;4.718;2022-10-04T01:26:46;8.40;99.90
12708;DHT22;6418;50.824;4.718;2022-10-04T01:29:15;8.40;99.90
12708;DHT22;6418;50.824;4.718;2022-10-04T01:31:44;8.40;99.90
12708;DHT22;6418;50.824;4.718;2022-10-04T01:34:14;8.40;99.90
12708;DHT22;6418;50.824;4.718;2022-10-04T01:36:42;8.40;99.90
12708;DHT22;6418;50.824;4.718;2022-10-04T01:39:14;10.00;99.90
12708;DHT22;6418;50.824;4.718;2022-10-04T01:41:45;8.40;99.90
12708;DHT22;6418;50.824;4.718;2022-10-04T01:44:19;8.40;99.90
12708;DHT22;6418;50.824;4.718;2022-10-04T01:46:49;8.40;99.90
12708;DHT22;6418;50.824;4.718;2022-10-04T01:49:19;9.70;99.90
12708;DHT22;6418;50.824;4.718;2022-10-04T01:51:54;8.30;99.90
12708;DHT22;6418;50.824;4.718;2022-10-04T01:54:31;9.60;99.90
12708;DHT22;6418;50.824;4.718;2022-10-04T01:57:04;8.30;99.90
12708;DHT22;6418;50.824;4.718;2022-10-04T01:59:37;8.30;99.90
12708;DHT22;6418;50.824;4.718;2022-10-04T02:02:07;9.60;99.90
12708;DHT22;6418;50.824;4.718;2022-10-04T02:04:37;8.30;99.90
12708;DHT22;6418;50.824;4.718;2022-10-04T02:07:11;8.20;99.90
12708;DHT22;6418;50.824;4.718;2022-10-04T02:09:42;8.20;99.90
12708;DHT22;6418;50.824;4.718;2022-10-04T02:12:14;8.70;99.90
12708;DHT22;6418;50.824;4.718;2022-10-04T02:14:45;8.10;99.90
12708;DHT22;6418;50.824;4.718;2022-10-04T02:17:19;8.10;99.90
12708;DHT22;6418;50.824;4.718;2022-10-04T02:19:47;8.10;99.90
12708;DHT22;6418;50.824;4.718;2022-10-04T02:22:15;8.10;99.90
12708;DHT22;6418;50.824;4.718;2022-10-04T02:24:46;8.10;99.90
12708;DHT22;6418;50.824;4.718;2022-10-04T02:27:14;8.00;99.90
12708;DHT22;6418;50.824;4.718;2022-10-04T02:29:42;8.10;99.90
12708;DHT22;6418;50.824;4.718;2022-10-04T02:32:09;8.10;99.90
12708;DHT22;6418;50.824;4.718;2022-10-04T02:34:55;8.00;99.90
12708;DHT22;6418;50.824;4.718;2022-10-04T02:37:22;8.00;99.90
12708;DHT22;6418;50.824;4.718;2022-10-04T02:39:54;7.90;99.90
12708;DHT22;6418;50.824;4.718;2022-10-04T02:42:34;7.90;99.90
12708;DHT22;6418;50.824;4.718;2022-10-04T02:45:12;7.90;99.90
12708;DHT22;6418;50.824;4.718;2022-10-04T02:47:43;7.90;99.90
12708;DHT22;6418;50.824;4.718;2022-10-04T02:50:23;9.70;99.90
12708;DHT22;6418;50.824;4.718;2022-10-04T02:52:55;7.90;99.90
12708;DHT22;6418;50.824;4.718;2022-10-04T02:55:26;7.90;99.90
12708;DHT22;6418;50.824;4.718;2022-10-04T02:57:56;8.60;99.90
12708;DHT22;6418;50.824;4.718;2022-10-04T03:00:26;7.80;99.90
12708;DHT22;6418;50.824;4.718;2022-10-04T03:03:10;7.80;99.90
12708;DHT22;6418;50.824;4.718;2022-10-04T03:05:40;7.80;99.90
12708;DHT22;6418;50.824;4.718;2022-10-04T03:08:09;8.30;99.90
12708;DHT22;6418;50.824;4.718;2022-10-04T03:10:38;8.40;99.90
12708;DHT22;6418;50.824;4.718;2022-10-04T03:13:07;7.70;99.90
12708;DHT22;6418;50.824;4.718;2022-10-04T03:15:35;7.60;99.90
12708;DHT22;6418;50.824;4.718;2022-10-04T03:18:02;7.70;99.90
12708;DHT22;6418;50.824;4.718;2022-10-04T03:20:29;7.60;99.90
12708;DHT22;6418;50.824;4.718;2022-10-04T03:22:56;7.70;99.90
12708;DHT22;6418;50.824;4.718;2022-10-04T03:25:27;7.70;99.90
12708;DHT22;6418;50.824;4.718;2022-10-04T03:27:59;7.60;99.90
12708;DHT22;6418;50.824;4.718;2022-10-04T03:30:27;7.60;99.90
12708;DHT22;6418;50.824;4.718;2022-10-04T03:32:56;7.60;99.90
12708;DHT22;6418;50.824;4.718;2022-10-04T03:35:28;8.50;99.90
12708;DHT22;6418;50.824;4.718;2022-10-04T03:37:57;7.60;99.90
12708;DHT22;6418;50.824;4.718;2022-10-04T03:40:29;7.70;99.90
12708;DHT22;6418;50.824;4.718;2022-10-04T03:42:58;7.70;99.90
12708;DHT22;6418;50.824;4.718;2022-10-04T03:45:27;7.60;99.90
12708;DHT22;6418;50.824;4.718;2022-10-04T03:48:00;7.80;99.90
12708;DHT22;6418;50.824;4.718;2022-10-04T03:50:33;7.70;99.90
12708;DHT22;6418;50.824;4.718;2022-10-04T03:53:04;7.60;99.90
12708;DHT22;6418;50.824;4.718;2022-10-04T03:55:33;7.70;99.90
12708;DHT22;6418;50.824;4.718;2022-10-04T03:58:04;7.80;99.90
12708;DHT22;6418;50.824;4.718;2022-10-04T04:00:36;8.60;99.90
12708;DHT22;6418;50.824;4.718;2022-10-04T04:03:06;7.80;99.90
12708;DHT22;6418;50.824;4.718;2022-10-04T04:05:41;7.90;99.90
12708;DHT22;6418;50.824;4.718;2022-10-04T04:08:12;7.90;99.90
12708;DHT22;6418;50.824;4.718;2022-10-04T04:10:43;7.80;99.90
12708;DHT22;6418;50.824;4.718;2022-10-04T04:13:20;7.00;99.90
12708;DHT22;6418;50.824;4.718;2022-10-04T04:15:49;7.90;99.90
12708;DHT22;6418;50.824;4.718;2022-10-04T04:18:20;7.90;99.90
12708;DHT22;6418;50.824;4.718;2022-10-04T04:20:49;8.30;99.90
12708;DHT22;6418;50.824;4.718;2022-10-04T04:23:23;7.90;99.90
12708;DHT22;6418;50.824;4.718;2022-10-04T04:25:54;7.90;99.90
12708;DHT22;6418;50.824;4.718;2022-10-04T04:28:26;9.10;99.90
12708;DHT22;6418;50.824;4.718;2022-10-04T04:30:56;9.60;99.90
12708;DHT22;6418;50.824;4.718;2022-10-04T04:33:28;8.90;99.90
12708;DHT22;6418;50.824;4.718;2022-10-04T04:36:02;8.00;99.90
12708;DHT22;6418;50.824;4.718;2022-10-04T04:38:29;9.10;99.90
12708;DHT22;6418;50.824;4.718;2022-10-04T04:41:06;7.80;99.90
12708;DHT22;6418;50.824;4.718;2022-10-04T04:43:35;7.80;99.90
12708;DHT22;6418;50.824;4.718;2022-10-04T04:46:07;7.80;99.90
12708;DHT22;6418;50.824;4.718;2022-10-04T04:48:36;7.70;99.90
12708;DHT22;6418;50.824;4.718;2022-10-04T04:51:03;7.70;99.90
12708;DHT22;6418;50.824;4.718;2022-10-04T04:53:31;7.70;99.90
12708;DHT22;6418;50.824;4.718;2022-10-04T04:56:00;8.60;99.90
12708;DHT22;6418;50.824;4.718;2022-10-04T04:58:29;7.60;99.90
12708;DHT22;6418;50.824;4.718;2022-10-04T05:01:03;9.00;99.90
12708;DHT22;6418;50.824;4.718;2022-10-04T05:03:31;7.60;99.90
12708;DHT22;6418;50.824;4.718;2022-10-04T05:05:59;7.60;99.90
12708;DHT22;6418;50.824;4.718;2022-10-04T05:08:28;7.80;99.90
12708;DHT22;6418;50.824;4.718;2022-10-04T05:11:02;7.50;99.90
12708;DHT22;6418;50.824;4.718;2022-10-04T05:13:34;7.50;99.90
12708;DHT22;6418;50.824;4.718;2022-10-04T05:16:15;7.40;99.90
12708;DHT22;6418;50.824;4.718;2022-10-04T05:18:44;7.40;99.90
12708;DHT22;6418;50.824;4.718;2022-10-04T05:21:21;7.50;99.90
12708;DHT22;6418;50.824;4.718;2022-10-04T05:23:49;7.50;99.90
12708;DHT22;6418;50.824;4.718;2022-10-04T05:26:22;7.50;99.90
12708;DHT22;6418;50.824;4.718;2022-10-04T05:28:50;7.40;99.90
12708;DHT22;6418;50.824;4.718;2022-10-04T05:31:31;8.00;99.90
12708;DHT22;6418;50.824;4.718;2022-10-04T05:34:14;7.50;99.90
12708;DHT22;6418;50.824;4.718;2022-10-04T05:37:05;8.60;99.90
12708;DHT22;6418;50.824;4.718;2022-10-04T05:39:41;7.50;99.90
12708;DHT22;6418;50.824;4.718;2022-10-04T05:42:15;7.40;99.90
12708;DHT22;6418;50.824;4.718;2022-10-04T05:44:52;7.40;99.90
12708;DHT22;6418;50.824;4.718;2022-10-04T05:47:24;7.40;99.90
12708;DHT22;6418;50.824;4.718;2022-10-04T05:49:53;8.40;99.90
12708;DHT22;6418;50.824;4.718;2022-10-04T05:52:27;7.40;99.90
12708;DHT22;6418;50.824;4.718;2022-10-04T05:55:23;7.40;99.90
12708;DHT22;6418;50.824;4.718;2022-10-04T05:58:19;7.40;99.90
12708;DHT22;6418;50.824;4.718;2022-10-04T06:01:07;7.40;99.90
12708;DHT22;6418;50.824;4.718;2022-10-04T06:03:59;7.40;99.90
12708;DHT22;6418;50.824;4.718;2022-10-04T06:06:34;7.90;99.90
12708;DHT22;6418;50.824;4.718;2022-10-04T06:09:10;8.30;99.90
12708;DHT22;6418;50.824;4.718;2022-10-04T06:11:48;7.30;99.90
12708;DHT22;6418;50.824;4.718;2022-10-04T06:14:35;7.30;99.90
12708;DHT22;6418;50.824;4.718;2022-10-04T06:17:29;7.30;99.90
12708;DHT22;6418;50.824;4.718;2022-10-04T06:20:34;7.30;99.90
12708;DHT22;6418;50.824;4.718;2022-10-04T06:23:13;7.30;99.90
12708;DHT22;6418;50.824;4.718;2022-10-04T06:25:45;7.30;99.90
12708;DHT22;6418;50.824;4.718;2022-10-04T06:28:18;7.30;99.90
12708;DHT22;6418;50.824;4.718;2022-10-04T06:31:12;7.30;99.90
12708;DHT22;6418;50.824;4.718;2022-10-04T06:33:55;7.30;99.90
12708;DHT22;6418;50.824;4.718;2022-10-04T06:36:57;7.70;99.90
12708;DHT22;6418;50.824;4.718;2022-10-04T06:42:50;7.30;99.90
12708;DHT22;6418;50.824;4.718;2022-10-04T06:45:42;7.30;99.90
12708;DHT22;6418;50.824;4.718;2022-10-04T06:48:23;7.30;99.90
12708;DHT22;6418;50.824;4.718;2022-10-04T06:50:58;7.30;99.90
12708;DHT22;6418;50.824;4.718;2022-10-04T06:53:35;7.30;99.90
12708;DHT22;6418;50.824;4.718;2022-10-04T06:56:21;7.30;99.90
12708;DHT22;6418;50.824;4.718;2022-10-04T06:59:11;7.30;99.90
12708;DHT22;6418;50.824;4.718;2022-10-04T07:01:47;7.30;99.90
12708;DHT22;6418;50.824;4.718;2022-10-04T07:04:24;7.40;99.90
12708;DHT22;6418;50.824;4.718;2022-10-04T07:07:06;8.40;99.90
12708;DHT22;6418;50.824;4.718;2022-10-04T07:09:49;7.40;99.90
12708;DHT22;6418;50.824;4.718;2022-10-04T07:12:18;7.40;99.90
12708;DHT22;6418;50.824;4.718;2022-10-04T07:14:47;7.50;99.90
12708;DHT22;6418;50.824;4.718;2022-10-04T07:17:19;7.50;99.90
12708;DHT22;6418;50.824;4.718;2022-10-04T07:19:49;7.80;99.90
12708;DHT22;6418;50.824;4.718;2022-10-04T07:22:21;7.70;99.90
12708;DHT22;6418;50.824;4.718;2022-10-04T07:24:58;7.70;99.90
12708;DHT22;6418;50.824;4.718;2022-10-04T07:27:31;7.70;99.90
12708;DHT22;6418;50.824;4.718;2022-10-04T07:30:02;7.80;99.90
12708;DHT22;6418;50.824;4.718;2022-10-04T07:32:32;7.90;99.90
12708;DHT22;6418;50.824;4.718;2022-10-04T07:35:04;8.00;99.90
12708;DHT22;6418;50.824;4.718;2022-10-04T07:37:46;8.00;99.90
12708;DHT22;6418;50.824;4.718;2022-10-04T07:40:23;8.10;99.90
12708;DHT22;6418;50.824;4.718;2022-10-04T07:42:53;8.30;99.90
12708;DHT22;6418;50.824;4.718;2022-10-04T07:45:26;8.30;99.90
12708;DHT22;6418;50.824;4.718;2022-10-04T07:48:13;8.50;99.90
12708;DHT22;6418;50.824;4.718;2022-10-04T07:50:45;8.50;99.90
12708;DHT22;6418;50.824;4.718;2022-10-04T07:53:17;8.60;99.90
12708;DHT22;6418;50.824;4.718;2022-10-04T07:55:54;8.70;99.90
12708;DHT22;6418;50.824;4.718;2022-10-04T07:58:30;8.70;99.90
12708;DHT22;6418;50.824;4.718;2022-10-04T08:01:01;8.80;99.90
12708;DHT22;6418;50.824;4.718;2022-10-04T08:03:44;8.80;99.90
12708;DHT22;6418;50.824;4.718;2022-10-04T08:06:17;8.90;99.90
12708;DHT22;6418;50.824;4.718;2022-10-04T08:11:50;9.10;99.90
12708;DHT22;6418;50.824;4.718;2022-10-04T08:14:34;9.20;99.90
12708;DHT22;6418;50.824;4.718;2022-10-04T08:17:14;9.30;99.90
12708;DHT22;6418;50.824;4.718;2022-10-04T08:19:49;9.40;99.90
12708;DHT22;6418;50.824;4.718;2022-10-04T08:22:30;9.50;99.90
12708;DHT22;6418;50.824;4.718;2022-10-04T08:25:04;9.50;99.90
12708;DHT22;6418;50.824;4.718;2022-10-04T08:27:49;9.60;99.90
12708;DHT22;6418;50.824;4.718;2022-10-04T08:30:40;9.70;99.90
12708;DHT22;6418;50.824;4.718;2022-10-04T08:33:22;9.80;99.90
12708;DHT22;6418;50.824;4.718;2022-10-04T08:36:01;9.90;99.90
12708;DHT22;6418;50.824;4.718;2022-10-04T08:38:43;10.00;99.90
12708;DHT22;6418;50.824;4.718;2022-10-04T08:41:53;10.20;99.90
12708;DHT22;6418;50.824;4.718;2022-10-04T08:45:06;10.20;99.90
12708;DHT22;6418;50.824;4.718;2022-10-04T08:48:01;10.30;99.90
12708;DHT22;6418;50.824;4.718;2022-10-04T08:51:19;10.40;99.90
12708;DHT22;6418;50.824;4.718;2022-10-04T08:54:27;10.50;99.90
12708;DHT22;6418;50.824;4.718;2022-10-04T08:57:22;10.60;99.90
12708;DHT22;6418;50.824;4.718;2022-10-04T09:00:12;10.70;99.90
12708;DHT22;6418;50.824;4.718;2022-10-04T09:03:15;10.80;99.90
12708;DHT22;6418;50.824;4.718;2022-10-04T09:06:14;10.80;99.90
12708;DHT22;6418;50.824;4.718;2022-10-04T09:12:14;11.00;99.90
12708;DHT22;6418;50.824;4.718;2022-10-04T09:15:18;11.10;99.90
12708;DHT22;6418;50.824;4.718;2022-10-04T09:17:53;11.10;99.90
12708;DHT22;6418;50.824;4.718;2022-10-04T09:20:38;11.20;99.90
12708;DHT22;6418;50.824;4.718;2022-10-04T09:23:17;11.30;99.90
12708;DHT22;6418;50.824;4.718;2022-10-04T09:26:01;11.30;99.90
12708;DHT22;6418;50.824;4.718;2022-10-04T09:31:55;11.50;99.90
12708;DHT22;6418;50.824;4.718;2022-10-04T09:34:38;11.50;99.90
12708;DHT22;6418;50.824;4.718;2022-10-04T09:37:29;11.60;99.90
12708;DHT22;6418;50.824;4.718;2022-10-04T09:40:34;11.70;99.90
12708;DHT22;6418;50.824;4.718;2022-10-04T09:46:12;11.80;99.90
12708;DHT22;6418;50.824;4.718;2022-10-04T09:48:52;11.90;99.90
12708;DHT22;6418;50.824;4.718;2022-10-04T09:51:36;12.00;99.90
12708;DHT22;6418;50.824;4.718;2022-10-04T09:57:21;12.10;99.90
12708;DHT22;6418;50.824;4.718;2022-10-04T10:00:07;12.20;99.90
12708;DHT22;6418;50.824;4.718;2022-10-04T10:06:07;12.30;99.90
12708;DHT22;6418;50.824;4.718;2022-10-04T10:08:45;12.40;99.90
12708;DHT22;6418;50.824;4.718;2022-10-04T10:11:22;12.50;99.90
12708;DHT22;6418;50.824;4.718;2022-10-04T10:17:06;12.60;99.90
12708;DHT22;6418;50.824;4.718;2022-10-04T10:23:11;12.80;99.90
12708;DHT22;6418;50.824;4.718;2022-10-04T10:25:51;12.90;99.90
12708;DHT22;6418;50.824;4.718;2022-10-04T10:28:47;13.00;99.90
12708;DHT22;6418;50.824;4.718;2022-10-04T10:31:32;12.80;99.90
12708;DHT22;6418;50.824;4.718;2022-10-04T10:34:31;13.20;99.90
12708;DHT22;6418;50.824;4.718;2022-10-04T10:37:09;13.30;99.90
12708;DHT22;6418;50.824;4.718;2022-10-04T10:39:52;13.40;99.90
12708;DHT22;6418;50.824;4.718;2022-10-04T10:42:38;13.50;99.90
12708;DHT22;6418;50.824;4.718;2022-10-04T10:45:18;13.60;99.90
12708;DHT22;6418;50.824;4.718;2022-10-04T10:47:53;13.70;99.90
12708;DHT22;6418;50.824;4.718;2022-10-04T10:50:45;13.80;99.90
12708;DHT22;6418;50.824;4.718;2022-10-04T10:56:48;13.90;99.90
12708;DHT22;6418;50.824;4.718;2022-10-04T11:12:05;14.40;99.90
12708;DHT22;6418;50.824;4.718;2022-10-04T11:14:54;14.40;99.90
12708;DHT22;6418;50.824;4.718;2022-10-04T11:17:54;14.50;99.90
12708;DHT22;6418;50.824;4.718;2022-10-04T11:24:10;14.60;99.90
12708;DHT22;6418;50.824;4.718;2022-10-04T11:27:00;14.70;99.90
12708;DHT22;6418;50.824;4.718;2022-10-04T11:29:52;14.80;99.90
12708;DHT22;6418;50.824;4.718;2022-10-04T11:32:55;14.80;99.90
12708;DHT22;6418;50.824;4.718;2022-10-04T11:35:50;14.80;99.90
12708;DHT22;6418;50.824;4.718;2022-10-04T11:38:31;14.90;99.90
12708;DHT22;6418;50.824;4.718;2022-10-04T11:41:11;14.90;99.90
12708;DHT22;6418;50.824;4.718;2022-10-04T11:46:46;15.10;99.90
12708;DHT22;6418;50.824;4.718;2022-10-04T11:49:32;15.10;99.90
12708;DHT22;6418;50.824;4.718;2022-10-04T11:52:46;15.20;99.90
12708;DHT22;6418;50.824;4.718;2022-10-04T11:55:32;15.30;99.90
12708;DHT22;6418;50.824;4.718;2022-10-04T11:58:06;15.30;99.90
12708;DHT22;6418;50.824;4.718;2022-10-04T12:00:52;15.30;99.90
12708;DHT22;6418;50.824;4.718;2022-10-04T12:03:47;15.40;99.90
12708;DHT22;6418;50.824;4.718;2022-10-04T12:06:31;15.40;99.90
12708;DHT22;6418;50.824;4.718;2022-10-04T12:09:11;15.50;99.90
12708;DHT22;6418;50.824;4.718;2022-10-04T12:11:56;15.60;99.90
12708;DHT22;6418;50.824;4.718;2022-10-04T12:15:03;15.60;99.90
12708;DHT22;6418;50.824;4.718;2022-10-04T12:18:03;15.60;99.90
12708;DHT22;6418;50.824;4.718;2022-10-04T12:24:13;15.70;99.90
12708;DHT22;6418;50.824;4.718;2022-10-04T12:26:58;15.60;99.90
12708;DHT22;6418;50.824;4.718;2022-10-04T12:32:33;15.70;99.90
12708;DHT22;6418;50.824;4.718;2022-10-04T12:35:08;15.70;99.90
12708;DHT22;6418;50.824;4.718;2022-10-04T12:38:04;15.70;99.90
12708;DHT22;6418;50.824;4.718;2022-10-04T12:40:36;15.70;99.90
12708;DHT22;6418;50.824;4.718;2022-10-04T12:43:12;15.80;99.90
12708;DHT22;6418;50.824;4.718;2022-10-04T12:45:54;15.80;99.90
12708;DHT22;6418;50.824;4.718;2022-10-04T12:48:32;15.80;99.90
12708;DHT22;6418;50.824;4.718;2022-10-04T12:51:13;15.90;99.90
12708;DHT22;6418;50.824;4.718;2022-10-04T12:53:50;15.90;99.90
12708;DHT22;6418;50.824;4.718;2022-10-04T12:56:33;15.90;99.90
12708;DHT22;6418;50.824;4.718;2022-10-04T12:59:12;15.90;99.90
12708;DHT22;6418;50.824;4.718;2022-10-04T13:01:50;16.00;99.90
12708;DHT22;6418;50.824;4.718;2022-10-04T13:04:30;16.00;99.90
12708;DHT22;6418;50.824;4.718;2022-10-04T13:07:22;16.00;99.90
12708;DHT22;6418;50.824;4.718;2022-10-04T13:10:11;16.00;99.90
12708;DHT22;6418;50.824;4.718;2022-10-04T13:13:04;16.10;99.90
12708;DHT22;6418;50.824;4.718;2022-10-04T13:15:41;16.00;99.90
12708;DHT22;6418;50.824;4.718;2022-10-04T13:18:19;16.10;99.90
12708;DHT22;6418;50.824;4.718;2022-10-04T13:20:53;16.10;99.90
12708;DHT22;6418;50.824;4.718;2022-10-04T13:23:46;16.10;99.90
12708;DHT22;6418;50.824;4.718;2022-10-04T13:26:40;16.10;99.90
12708;DHT22;6418;50.824;4.718;2022-10-04T13:29:18;16.20;99.90
12708;DHT22;6418;50.824;4.718;2022-10-04T13:31:50;16.20;99.90
12708;DHT22;6418;50.824;4.718;2022-10-04T13:34:29;16.20;99.90
12708;DHT22;6418;50.824;4.718;2022-10-04T13:42:57;16.30;99.90
12708;DHT22;6418;50.824;4.718;2022-10-04T13:45:35;16.30;99.90
12708;DHT22;6418;50.824;4.718;2022-10-04T13:48:22;16.40;99.90
12708;DHT22;6418;50.824;4.718;2022-10-04T13:51:08;16.40;99.90
12708;DHT22;6418;50.824;4.718;2022-10-04T13:53:46;16.40;99.90
12708;DHT22;6418;50.824;4.718;2022-10-04T13:56:52;16.50;99.90
12708;DHT22;6418;50.824;4.718;2022-10-04T13:59:30;16.50;99.90
12708;DHT22;6418;50.824;4.718;2022-10-04T14:11:37;16.60;99.90
12708;DHT22;6418;50.824;4.718;2022-10-04T14:14:21;16.60;99.90
12708;DHT22;6418;50.824;4.718;2022-10-04T14:20:51;16.70;99.90
12708;DHT22;6418;50.824;4.718;2022-10-04T14:30:13;16.80;99.90
12708;DHT22;6418;50.824;4.718;2022-10-04T14:35:59;16.90;99.90
12708;DHT22;6418;50.824;4.718;2022-10-04T14:38:55;16.90;99.90
12708;DHT22;6418;50.824;4.718;2022-10-04T14:41:49;16.90;99.90
12708;DHT22;6418;50.824;4.718;2022-10-04T14:44:41;16.90;99.90
12708;DHT22;6418;50.824;4.718;2022-10-04T14:47:35;17.00;99.90
12708;DHT22;6418;50.824;4.718;2022-10-04T14:50:21;17.00;99.90
12708;DHT22;6418;50.824;4.718;2022-10-04T14:53:01;17.10;99.90
12708;DHT22;6418;50.824;4.718;2022-10-04T14:55:50;17.10;99.90
12708;DHT22;6418;50.824;4.718;2022-10-04T14:58:29;17.10;99.90
12708;DHT22;6418;50.824;4.718;2022-10-04T15:01:17;17.20;99.90
12708;DHT22;6418;50.824;4.718;2022-10-04T15:06:43;17.20;99.90
12708;DHT22;6418;50.824;4.718;2022-10-04T15:12:39;17.20;99.90
12708;DHT22;6418;50.824;4.718;2022-10-04T15:15:40;17.30;99.90
12708;DHT22;6418;50.824;4.718;2022-10-04T15:18:29;18.70;99.90
12708;DHT22;6418;50.824;4.718;2022-10-04T15:21:03;17.30;99.90
12708;DHT22;6418;50.824;4.718;2022-10-04T15:23:38;17.30;99.90
12708;DHT22;6418;50.824;4.718;2022-10-04T15:29:05;17.30;99.90
12708;DHT22;6418;50.824;4.718;2022-10-04T15:31:42;17.30;99.90
12708;DHT22;6418;50.824;4.718;2022-10-04T15:34:28;17.30;99.90
12708;DHT22;6418;50.824;4.718;2022-10-04T15:37:21;17.30;99.90
12708;DHT22;6418;50.824;4.718;2022-10-04T15:40:25;17.30;99.90
12708;DHT22;6418;50.824;4.718;2022-10-04T15:43:05;17.30;99.90
12708;DHT22;6418;50.824;4.718;2022-10-04T15:46:00;17.30;99.90
12708;DHT22;6418;50.824;4.718;2022-10-04T15:55:04;17.20;99.90
12708;DHT22;6418;50.824;4.718;2022-10-04T15:57:40;17.20;99.90
12708;DHT22;6418;50.824;4.718;2022-10-04T16:00:20;17.20;99.90
12708;DHT22;6418;50.824;4.718;2022-10-04T16:03:00;17.20;99.90
12708;DHT22;6418;50.824;4.718;2022-10-04T16:05:34;17.10;99.90
12708;DHT22;6418;50.824;4.718;2022-10-04T16:08:28;17.10;99.90
12708;DHT22;6418;50.824;4.718;2022-10-04T16:11:12;17.10;99.90
12708;DHT22;6418;50.824;4.718;2022-10-04T16:14:00;17.10;99.90
12708;DHT22;6418;50.824;4.718;2022-10-04T16:16:52;17.00;99.90
12708;DHT22;6418;50.824;4.718;2022-10-04T16:19:42;17.00;99.90
12708;DHT22;6418;50.824;4.718;2022-10-04T16:22:13;17.00;99.90
12708;DHT22;6418;50.824;4.718;2022-10-04T16:24:44;16.90;99.90
12708;DHT22;6418;50.824;4.718;2022-10-04T16:27:44;16.90;99.90
12708;DHT22;6418;50.824;4.718;2022-10-04T16:30:21;16.80;99.90
12708;DHT22;6418;50.824;4.718;2022-10-04T16:33:02;16.80;99.90
12708;DHT22;6418;50.824;4.718;2022-10-04T16:35:33;16.70;99.90
12708;DHT22;6418;50.824;4.718;2022-10-04T16:38:14;16.60;99.90
12708;DHT22;6418;50.824;4.718;2022-10-04T16:41:00;16.60;99.90
12708;DHT22;6418;50.824;4.718;2022-10-04T16:43:36;16.50;99.90
12708;DHT22;6418;50.824;4.718;2022-10-04T16:46:10;16.50;99.90
12708;DHT22;6418;50.824;4.718;2022-10-04T16:48:49;16.40;99.90
12708;DHT22;6418;50.824;4.718;2022-10-04T16:51:48;16.30;99.90
12708;DHT22;6418;50.824;4.718;2022-10-04T16:55:03;16.20;99.90
12708;DHT22;6418;50.824;4.718;2022-10-04T16:57:38;16.10;99.90
12708;DHT22;6418;50.824;4.718;2022-10-04T17:00:33;16.00;99.90
12708;DHT22;6418;50.824;4.718;2022-10-04T17:03:16;15.90;99.90
12708;DHT22;6418;50.824;4.718;2022-10-04T17:05:57;15.80;99.90
12708;DHT22;6418;50.824;4.718;2022-10-04T17:08:45;15.70;99.90
12708;DHT22;6418;50.824;4.718;2022-10-04T17:11:28;15.60;99.90
12708;DHT22;6418;50.824;4.718;2022-10-04T17:14:00;15.50;99.90
12708;DHT22;6418;50.824;4.718;2022-10-04T17:16:35;15.40;99.90
12708;DHT22;6418;50.824;4.718;2022-10-04T17:19:20;15.40;99.90
12708;DHT22;6418;50.824;4.718;2022-10-04T17:22:00;15.30;99.90
12708;DHT22;6418;50.824;4.718;2022-10-04T17:24:50;15.20;99.90
12708;DHT22;6418;50.824;4.718;2022-10-04T17:27:26;15.10;99.90
12708;DHT22;6418;50.824;4.718;2022-10-04T17:30:12;15.00;99.90
12708;DHT22;6418;50.824;4.718;2022-10-04T17:32:55;15.60;99.90
12708;DHT22;6418;50.824;4.718;2022-10-04T17:36:02;14.80;99.90
12708;DHT22;6418;50.824;4.718;2022-10-04T17:38:42;14.70;99.90
12708;DHT22;6418;50.824;4.718;2022-10-04T17:41:16;14.60;99.90
12708;DHT22;6418;50.824;4.718;2022-10-04T17:46:44;14.50;99.90
12708;DHT22;6418;50.824;4.718;2022-10-04T17:49:21;14.40;99.90
12708;DHT22;6418;50.824;4.718;2022-10-04T17:52:15;14.40;99.90
12708;DHT22;6418;50.824;4.718;2022-10-04T17:55:12;14.30;99.90
12708;DHT22;6418;50.824;4.718;2022-10-04T17:57:50;14.20;99.90
12708;DHT22;6418;50.824;4.718;2022-10-04T18:00:20;14.20;99.90
12708;DHT22;6418;50.824;4.718;2022-10-04T18:03:09;14.10;99.90
12708;DHT22;6418;50.824;4.718;2022-10-04T18:05:48;14.10;99.90
12708;DHT22;6418;50.824;4.718;2022-10-04T18:08:22;14.10;99.90
12708;DHT22;6418;50.824;4.718;2022-10-04T18:10:51;14.00;99.90
12708;DHT22;6418;50.824;4.718;2022-10-04T18:13:26;14.00;99.90
12708;DHT22;6418;50.824;4.718;2022-10-04T18:16:00;13.90;99.90
12708;DHT22;6418;50.824;4.718;2022-10-04T18:18:29;13.90;99.90
12708;DHT22;6418;50.824;4.718;2022-10-04T18:21:19;13.80;99.90
12708;DHT22;6418;50.824;4.718;2022-10-04T18:23:53;13.80;99.90
12708;DHT22;6418;50.824;4.718;2022-10-04T18:26:21;13.70;99.90
12708;DHT22;6418;50.824;4.718;2022-10-04T18:28:50;13.70;99.90
12708;DHT22;6418;50.824;4.718;2022-10-04T18:31:28;13.60;99.90
12708;DHT22;6418;50.824;4.718;2022-10-04T18:33:56;13.50;99.90
12708;DHT22;6418;50.824;4.718;2022-10-04T18:36:27;13.40;99.90
12708;DHT22;6418;50.824;4.718;2022-10-04T18:39:01;13.40;99.90
12708;DHT22;6418;50.824;4.718;2022-10-04T18:41:29;13.30;99.90
12708;DHT22;6418;50.824;4.718;2022-10-04T18:44:14;13.30;99.90
12708;DHT22;6418;50.824;4.718;2022-10-04T18:46:42;13.20;99.90
12708;DHT22;6418;50.824;4.718;2022-10-04T18:49:14;13.20;99.90
12708;DHT22;6418;50.824;4.718;2022-10-04T18:51:53;13.20;99.90
12708;DHT22;6418;50.824;4.718;2022-10-04T18:54:31;13.20;99.90
12708;DHT22;6418;50.824;4.718;2022-10-04T18:57:06;13.10;99.90
12708;DHT22;6418;50.824;4.718;2022-10-04T18:59:44;13.10;99.90